Forest City, MO (64451)

12:24 PM CDT on September 19, 2019 (GMT -0500)
White Cloud | | Change Station
Active Advisory: Flood Warning

Elev 1043 ft 39.97 °N, 95.31 °W | Updated 8 minutes ago

Clear
Clear
79.4 °F
Feels Like 82 °F
N
3
Wind Variable Wind from East
Gusts 13.0 mph

Today
High -- | Low -- °F
--% Chance of Precip.
Yesterday
High -- | Low -- °F
Precip. -- in
Pressure 30.01 in
Visibility 10.0 miles
Clouds Clear
Heat Index 82 °F
Dew Point 67 °F
Humidity 67%
Rainfall 0.00 in
Snow Depth Not available.
7:05 AM 7:23 PM
Waning Gibbous, 74% visible
METAR KSTJ 191653Z 06007KT 030V110 10SM CLR 29/22 A3004 RMK AO2 SLP163 T02940217
Pressure 30.01 in
Visibility 10.0 miles
Clouds Clear
Heat Index 82 °F
Dew Point 67 °F
Humidity 67%
Rainfall 0.00 in
Snow Depth Not available.
7:05 AM 7:23 PM
Waning Gibbous, 74% visible
METAR KSTJ 191653Z 06007KT 030V110 10SM CLR 29/22 A3004 RMK AO2 SLP163 T02940217

Get Your Daily Forecast Email!

Thanks for signing up!

Be on the lookout for a verification email in your inbox.

You'll start receiving severe weather alerts in your inbox..

×

10-Day Weather Forecast

Almanac

Astronomy

Sep. 19, 2019 Rise Set
Actual Time
Civil Twilight
Nautical Twilight
Astronomical Twilight
Moon
Length of Visible Light
Length of Day
Tomorrow will be .
, % of the Moon is Illuminated

Today's Extremes

State Highs State Lows

Community

WunderPhotos

Category 6

Welcome to Category 6. This is the collective home for Weather Underground's featured writeups by Dr. Jeff Masters (right), Bob Henson (left), Chris Burt, and other regular contributors.

Nearby

Air Quality

  Air Quality AQ Index Pollutant
Not available.

Snow Depth

Station Depth Elevation

Earthquake Activity

City Distance Mag. Time & Date
Minimum magnitude displayed is 2.5.

Coastal Water Temperatures

Place Temperature

Stations

Nearby Weather Stations

Station Location Temp. Windchill Dew Point Humidity Wind Precip. Elev Updated Type
                   

Watches & Warnings

Flood Warning
Issued: 10:15 AM CDT Sep. 19, 2019 – National Weather Service

The Flood Warning continues for
the Missouri River at Rulo.
* At 10:00 am Thursday the stage was 20.7 feet... or 3.7 feet above
flood stage.
* Flood stage is 17.0 feet.
* Minor flooding is occurring and moderate flooding is forecast.
* Forecast... the river will continue rising to near 22.8 feet by
early Monday afternoon then begin falling.



Lat... Lon 4026 9563 4026 9544 3991 9501 3982 9503
      3997 9536